Terminal Aerodrome Forecast
Issued by NWS

Current Version | Previous Version | Text Only | Print | Product List | Glossary On
Versions: 1 2 3 4 5 6 7 8 9 10 11 12
000
FTPA31 PHFO 211120
TAFHKO
TAF
PHKO 211120Z 2112/2212 08007KT P6SM SCT030 BKN050
     FM212000 20010KT P6SM FEW035 BKN060
     FM220400 05008KT P6SM FEW030 BKN050
     FM220700 12006KT P6SM FEW030 BKN050=

USA.gov is the U.S. government's official web portal to all federal, state and local government web resources and services.